createdAt,value
2017-01-25T00:00:45.288Z,0
2017-01-25T00:01:44.480Z,0
2017-01-25T00:02:45.300Z,0
2017-01-25T00:03:45.293Z,0
2017-01-25T00:04:45.317Z,0
2017-01-25T00:05:45.692Z,0
2017-01-25T00:06:45.276Z,0
2017-01-25T00:07:45.673Z,0
2017-01-25T00:08:44.860Z,0
2017-01-25T00:09:45.253Z,0
2017-01-25T00:10:45.252Z,0
2017-01-25T00:11:44.429Z,0
2017-01-25T00:12:44.840Z,0
2017-01-25T00:13:45.241Z,0
2017-01-25T00:14:45.688Z,0
2017-01-25T00:15:45.237Z,0
2017-01-25T00:16:45.236Z,0
2017-01-25T00:17:44.821Z,0
2017-01-25T00:18:45.229Z,0
2017-01-25T00:19:45.213Z,0
2017-01-25T00:20:44.785Z,0
2017-01-25T00:21:45.211Z,0
2017-01-25T00:22:45.202Z,0
2017-01-25T00:23:44.793Z,0
2017-01-25T00:24:45.189Z,0
2017-01-25T00:25:45.593Z,0
2017-01-25T00:26:45.217Z,0
2017-01-25T00:27:45.294Z,0
2017-01-25T00:28:45.700Z,0
2017-01-25T00:29:45.280Z,0
2017-01-25T00:30:45.690Z,0
2017-01-25T00:31:45.689Z,0
2017-01-25T00:32:45.269Z,0
2017-01-25T00:33:44.841Z,0
2017-01-25T00:34:45.253Z,0
2017-01-25T00:35:45.664Z,0
2017-01-25T00:36:45.245Z,0
2017-01-25T00:37:45.656Z,0
2017-01-25T00:38:45.657Z,0
2017-01-25T00:39:45.647Z,0
2017-01-25T00:40:45.641Z,0
2017-01-25T00:41:45.221Z,0
2017-01-25T00:42:45.217Z,0
2017-01-25T00:43:45.214Z,0
2017-01-25T00:44:45.622Z,0
2017-01-25T00:45:45.202Z,0
2017-01-25T00:46:45.613Z,0
2017-01-25T00:47:45.609Z,0
2017-01-25T00:48:45.189Z,0
2017-01-25T00:49:45.602Z,0
2017-01-25T00:50:45.597Z,0
2017-01-25T00:51:45.593Z,0
2017-01-25T00:52:45.178Z,0
2017-01-25T00:53:45.587Z,0
2017-01-25T00:54:45.162Z,0
2017-01-25T00:55:45.159Z,0
2017-01-25T00:56:45.149Z,0
2017-01-25T00:57:45.591Z,0
2017-01-25T00:58:44.725Z,0
2017-01-25T00:59:45.554Z,0
2017-01-25T01:00:45.546Z,0
2017-01-25T01:01:45.574Z,0
2017-01-25T01:02:45.538Z,0
2017-01-25T01:03:45.534Z,0
2017-01-25T01:04:45.530Z,0
2017-01-25T01:05:45.110Z,0
2017-01-25T01:06:45.522Z,0
2017-01-25T01:07:45.105Z,0
2017-01-25T01:08:45.519Z,0
2017-01-25T01:09:45.116Z,0
2017-01-25T01:10:45.498Z,0
2017-01-25T01:11:45.495Z,0
2017-01-25T01:12:45.491Z,0
2017-01-25T01:13:45.518Z,0
2017-01-25T01:14:45.069Z,0
2017-01-25T01:15:45.482Z,0
2017-01-25T01:16:45.483Z,0
2017-01-25T01:17:45.466Z,0
2017-01-25T01:18:45.462Z,0
2017-01-25T01:19:45.466Z,0
2017-01-25T01:20:45.039Z,0
2017-01-25T01:21:45.451Z,0
2017-01-25T01:22:45.443Z,0
2017-01-25T01:23:45.446Z,0
2017-01-25T01:24:45.014Z,0
2017-01-25T01:25:45.434Z,0
2017-01-25T01:26:45.430Z,0
2017-01-25T01:27:45.419Z,0
2017-01-25T01:28:45.415Z,0
2017-01-25T01:29:45.411Z,0
2017-01-25T01:30:44.990Z,0
2017-01-25T01:31:44.575Z,0
2017-01-25T01:32:45.399Z,0
2017-01-25T01:33:45.415Z,0
2017-01-25T01:34:45.387Z,0
2017-01-25T01:35:44.551Z,0
2017-01-25T01:36:44.131Z,0
2017-01-25T01:37:45.375Z,0
2017-01-25T01:38:45.367Z,0
2017-01-25T01:39:45.375Z,0
2017-01-25T01:40:45.361Z,0
2017-01-25T01:41:45.355Z,0
2017-01-25T01:42:45.351Z,0
2017-01-25T01:43:45.347Z,0
2017-01-25T01:44:45.347Z,0
2017-01-25T01:45:45.335Z,0
2017-01-25T01:46:45.335Z,0
2017-01-25T01:47:45.327Z,0
2017-01-25T01:48:45.328Z,0
2017-01-25T01:49:45.348Z,0
2017-01-25T01:50:44.920Z,0
2017-01-25T01:51:45.312Z,0
2017-01-25T01:52:44.892Z,0
2017-01-25T01:53:45.304Z,0
2017-01-25T01:54:45.292Z,0
2017-01-25T01:55:45.287Z,0
2017-01-25T01:56:44.868Z,0
2017-01-25T01:57:45.279Z,0
2017-01-25T01:58:45.275Z,0
2017-01-25T01:59:44.852Z,0
2017-01-25T02:00:44.848Z,0
2017-01-25T02:01:45.260Z,0
2017-01-25T02:02:44.840Z,0
2017-01-25T02:03:44.866Z,0
2017-01-25T02:04:45.256Z,0
2017-01-25T02:05:44.837Z,0
2017-01-25T02:06:44.824Z,0
2017-01-25T02:07:45.244Z,0
2017-01-25T02:08:45.229Z,0
2017-01-25T02:09:44.813Z,0
2017-01-25T02:10:45.216Z,0
2017-01-25T02:11:44.808Z,0
2017-01-25T02:12:44.793Z,0
2017-01-25T02:13:44.792Z,0
2017-01-25T02:14:44.788Z,0
2017-01-25T02:15:44.777Z,0
2017-01-25T02:16:45.193Z,0
2017-01-25T02:17:44.773Z,0
2017-01-25T02:18:44.659Z,0
2017-01-25T02:19:44.240Z,0
2017-01-25T02:20:44.236Z,0
2017-01-25T02:21:43.817Z,0
2017-01-25T02:22:44.228Z,0
2017-01-25T02:23:44.629Z,0
2017-01-25T02:24:44.213Z,0
2017-01-25T02:25:44.209Z,0
2017-01-25T02:26:45.025Z,0
2017-01-25T02:27:44.209Z,0
2017-01-25T02:28:44.606Z,0
2017-01-25T02:29:44.604Z,0
2017-01-25T02:30:44.589Z,0
2017-01-25T02:31:44.589Z,0
2017-01-25T02:32:44.596Z,0
2017-01-25T02:33:44.994Z,0
2017-01-25T02:34:43.756Z,0
2017-01-25T02:35:44.161Z,0
2017-01-25T02:36:44.573Z,0
2017-01-25T02:37:44.565Z,0
2017-01-25T02:38:44.150Z,0
2017-01-25T02:39:44.142Z,0
2017-01-25T02:40:44.145Z,0
2017-01-25T02:41:44.945Z,0
2017-01-25T02:42:44.945Z,0
2017-01-25T02:43:44.561Z,0
2017-01-25T02:44:44.537Z,0
2017-01-25T02:45:44.115Z,0
2017-01-25T02:46:44.521Z,0
2017-01-25T02:47:43.694Z,0
2017-01-25T02:48:44.105Z,0
2017-01-25T02:49:44.910Z,0
2017-01-25T02:50:43.274Z,0
2017-01-25T02:51:44.082Z,0
2017-01-25T02:52:43.681Z,0
2017-01-25T02:53:44.074Z,0
2017-01-25T02:54:44.069Z,0
2017-01-25T02:55:44.901Z,0
2017-01-25T02:56:44.474Z,0
2017-01-25T02:57:44.874Z,0
2017-01-25T02:58:44.456Z,0
2017-01-25T02:59:44.463Z,0
2017-01-25T03:00:44.043Z,0
2017-01-25T03:01:44.039Z,0
2017-01-25T03:02:44.035Z,0
2017-01-25T03:03:44.438Z,0
2017-01-25T03:04:44.441Z,0
2017-01-25T03:05:44.426Z,0
2017-01-25T03:06:44.435Z,0
2017-01-25T03:07:44.419Z,0
2017-01-25T03:08:44.830Z,0
2017-01-25T03:09:44.414Z,0
2017-01-25T03:10:44.823Z,0
2017-01-25T03:11:44.398Z,0
2017-01-25T03:12:44.387Z,0
2017-01-25T03:13:43.562Z,0
2017-01-25T03:14:44.390Z,0
2017-01-25T03:15:44.779Z,0
2017-01-25T03:16:43.987Z,0
2017-01-25T03:17:43.563Z,0
2017-01-25T03:18:44.367Z,0
2017-01-25T03:19:44.362Z,0
2017-01-25T03:20:43.966Z,0
2017-01-25T03:21:44.771Z,0
2017-01-25T03:22:44.351Z,0
2017-01-25T03:23:43.938Z,0
2017-01-25T03:24:44.343Z,0
2017-01-25T03:25:44.761Z,0
2017-01-25T03:26:44.331Z,0
2017-01-25T03:27:43.494Z,0
2017-01-25T03:28:43.506Z,0
2017-01-25T03:29:44.319Z,0
2017-01-25T03:30:44.327Z,0
2017-01-25T03:31:44.299Z,0
2017-01-25T03:32:43.891Z,0
2017-01-25T03:33:44.296Z,0
2017-01-25T03:34:43.891Z,0
2017-01-25T03:35:43.879Z,0
2017-01-25T03:36:44.287Z,0
2017-01-25T03:37:44.284Z,0
2017-01-25T03:38:44.276Z,0
2017-01-25T03:39:43.863Z,0
2017-01-25T03:40:44.259Z,0
2017-01-25T03:41:43.436Z,0
2017-01-25T03:42:43.851Z,0
2017-01-25T03:43:43.848Z,0
2017-01-25T03:44:44.651Z,0
2017-01-25T03:45:44.263Z,0
2017-01-25T03:46:44.655Z,0
2017-01-25T03:47:43.816Z,0
2017-01-25T03:48:44.227Z,0
2017-01-25T03:49:44.216Z,0
2017-01-25T03:50:43.407Z,0
2017-01-25T03:51:43.388Z,0
2017-01-25T03:52:44.615Z,0
2017-01-25T03:53:43.804Z,0
2017-01-25T03:54:43.788Z,0
2017-01-25T03:55:44.651Z,0
2017-01-25T03:56:44.610Z,0
2017-01-25T03:57:43.776Z,0
2017-01-25T03:58:44.172Z,0
2017-01-25T03:59:44.208Z,0
2017-01-25T04:00:44.185Z,0
2017-01-25T04:01:43.745Z,0
2017-01-25T04:02:44.572Z,0
2017-01-25T04:03:44.199Z,0
2017-01-25T04:04:44.560Z,0
2017-01-25T04:05:43.732Z,0
2017-01-25T04:06:44.140Z,0
2017-01-25T04:07:44.128Z,0
2017-01-25T04:08:44.132Z,0
2017-01-25T04:09:43.720Z,0
2017-01-25T04:10:43.306Z,0
2017-01-25T04:11:44.132Z,0
2017-01-25T04:12:43.288Z,0
2017-01-25T04:13:43.685Z,0
2017-01-25T04:14:44.112Z,0
2017-01-25T04:15:44.085Z,0
2017-01-25T04:16:44.501Z,0
2017-01-25T04:17:43.265Z,0
2017-01-25T04:18:43.674Z,0
2017-01-25T04:19:43.677Z,0
2017-01-25T04:20:43.653Z,0
2017-01-25T04:21:43.649Z,0
2017-01-25T04:22:44.068Z,0
2017-01-25T04:23:44.061Z,0
2017-01-25T04:24:43.646Z,0
2017-01-25T04:25:44.060Z,0
2017-01-25T04:26:44.461Z,0
2017-01-25T04:27:43.616Z,0
2017-01-25T04:28:44.056Z,0
2017-01-25T04:29:44.453Z,0
2017-01-25T04:30:43.610Z,0
2017-01-25T04:31:44.009Z,0
2017-01-25T04:32:44.017Z,0
2017-01-25T04:33:43.596Z,0
2017-01-25T04:34:44.005Z,0
2017-01-25T04:35:44.006Z,0
2017-01-25T04:36:43.581Z,0
2017-01-25T04:37:44.021Z,0
2017-01-25T04:38:43.988Z,0
2017-01-25T04:39:43.566Z,0
2017-01-25T04:40:43.969Z,0
2017-01-25T04:41:44.381Z,0
2017-01-25T04:42:43.964Z,0
2017-01-25T04:43:43.157Z,0
2017-01-25T04:44:43.554Z,0
2017-01-25T04:45:43.977Z,0
2017-01-25T04:46:44.389Z,0
2017-01-25T04:47:43.533Z,0
2017-01-25T04:48:44.345Z,0
2017-01-25T04:49:43.933Z,0
2017-01-25T04:50:44.345Z,0
2017-01-25T04:51:43.917Z,0
2017-01-25T04:52:44.325Z,0
2017-01-25T04:53:43.912Z,0
2017-01-25T04:54:43.902Z,0
2017-01-25T04:55:43.909Z,0
2017-01-25T04:56:43.893Z,0
2017-01-25T04:57:43.486Z,0
2017-01-25T04:58:43.894Z,0
2017-01-25T04:59:43.470Z,0
2017-01-25T05:00:43.878Z,0
2017-01-25T05:01:44.290Z,0
2017-01-25T05:02:43.466Z,0
2017-01-25T05:03:43.862Z,0
2017-01-25T05:04:43.067Z,0
2017-01-25T05:05:43.033Z,0
2017-01-25T05:06:43.857Z,0
2017-01-25T05:07:44.258Z,0
2017-01-25T05:08:43.842Z,0
2017-01-25T05:09:43.430Z,0
2017-01-25T05:10:43.830Z,0
2017-01-25T05:11:43.830Z,0
2017-01-25T05:12:43.826Z,0
2017-01-25T05:13:43.830Z,0
2017-01-25T05:14:43.818Z,0
2017-01-25T05:15:43.802Z,0
2017-01-25T05:16:42.980Z,0
2017-01-25T05:17:43.382Z,0
2017-01-25T05:18:44.206Z,0
2017-01-25T05:19:43.796Z,0
2017-01-25T05:20:43.786Z,0
2017-01-25T05:21:44.218Z,0
2017-01-25T05:22:42.951Z,0
2017-01-25T05:23:43.763Z,0
2017-01-25T05:24:43.767Z,0
2017-01-25T05:25:43.758Z,0
2017-01-25T05:26:43.754Z,0
2017-01-25T05:27:43.747Z,0
2017-01-25T05:28:44.159Z,0
2017-01-25T05:29:44.147Z,0
2017-01-25T05:30:43.763Z,0
2017-01-25T05:31:44.138Z,0
2017-01-25T05:32:44.143Z,0
2017-01-25T05:33:42.895Z,0
2017-01-25T05:34:44.119Z,0
2017-01-25T05:35:44.115Z,0
2017-01-25T05:36:43.722Z,0
2017-01-25T05:37:43.698Z,0
2017-01-25T05:38:43.286Z,0
2017-01-25T05:39:42.862Z,0
2017-01-25T05:40:43.678Z,0
2017-01-25T05:41:43.679Z,0
2017-01-25T05:42:43.266Z,0
2017-01-25T05:43:43.666Z,0
2017-01-25T05:44:44.105Z,0
2017-01-25T05:45:42.838Z,0
2017-01-25T05:46:43.655Z,0
2017-01-25T05:47:43.638Z,0
2017-01-25T05:48:42.818Z,0
2017-01-25T05:49:43.230Z,0
2017-01-25T05:50:44.066Z,0
2017-01-25T05:51:42.810Z,0
2017-01-25T05:52:42.799Z,0
2017-01-25T05:53:43.214Z,0
2017-01-25T05:54:44.022Z,0
2017-01-25T05:55:43.606Z,0
2017-01-25T05:56:44.006Z,0
2017-01-25T05:57:43.194Z,0
2017-01-25T05:58:43.599Z,0
2017-01-25T05:59:43.181Z,0
2017-01-25T06:00:43.171Z,0
2017-01-25T06:01:43.587Z,0
2017-01-25T06:02:43.574Z,0
2017-01-25T06:03:43.570Z,0
2017-01-25T06:04:43.978Z,0
2017-01-25T06:05:42.739Z,0
2017-01-25T06:06:43.550Z,0
2017-01-25T06:07:43.551Z,0
2017-01-25T06:08:43.958Z,0
2017-01-25T06:09:43.543Z,0
2017-01-25T06:10:43.947Z,0
2017-01-25T06:11:43.539Z,0
2017-01-25T06:12:43.115Z,0
2017-01-25T06:13:43.519Z,0
2017-01-25T06:14:43.515Z,0
2017-01-25T06:15:43.515Z,0
2017-01-25T06:16:43.099Z,0
2017-01-25T06:17:43.507Z,0
2017-01-25T06:18:43.498Z,0
2017-01-25T06:19:43.907Z,0
2017-01-25T06:20:43.903Z,0
2017-01-25T06:21:43.475Z,0
2017-01-25T06:22:43.517Z,0
2017-01-25T06:23:43.066Z,0
2017-01-25T06:24:43.062Z,0
2017-01-25T06:25:43.455Z,0
2017-01-25T06:26:43.872Z,0
2017-01-25T06:27:43.487Z,0
2017-01-25T06:28:43.451Z,0
2017-01-25T06:29:43.440Z,0
2017-01-25T06:30:43.439Z,0
2017-01-25T06:31:43.431Z,0
2017-01-25T06:32:43.028Z,0
2017-01-25T06:33:43.432Z,0
2017-01-25T06:34:43.428Z,0
2017-01-25T06:35:43.416Z,0
2017-01-25T06:36:43.812Z,0
2017-01-25T06:37:43.816Z,0
2017-01-25T06:38:43.400Z,0
2017-01-25T06:39:43.395Z,0
2017-01-25T06:40:42.976Z,0
2017-01-25T06:41:43.804Z,0
2017-01-25T06:42:43.491Z,0
2017-01-25T06:43:43.376Z,0
2017-01-25T06:44:43.372Z,0
2017-01-25T06:45:43.772Z,0
2017-01-25T06:46:42.948Z,0
2017-01-25T06:47:43.352Z,0
2017-01-25T06:48:43.360Z,0
2017-01-25T06:49:43.336Z,0
2017-01-25T06:50:43.752Z,0
2017-01-25T06:51:43.752Z,0
2017-01-25T06:52:43.328Z,0
2017-01-25T06:53:42.915Z,0
2017-01-25T06:54:42.938Z,0
2017-01-25T06:55:43.320Z,0
2017-01-25T06:56:43.716Z,0
2017-01-25T06:57:42.908Z,0
2017-01-25T06:58:42.061Z,0
2017-01-25T06:59:43.300Z,0
2017-01-25T07:00:43.712Z,0
2017-01-25T07:01:43.292Z,0
2017-01-25T07:02:42.869Z,0
2017-01-25T07:03:43.705Z,0
2017-01-25T07:04:43.269Z,0
2017-01-25T07:05:43.681Z,0
2017-01-25T07:06:42.849Z,0
2017-01-25T07:07:43.257Z,0
2017-01-25T07:08:43.253Z,0
2017-01-25T07:09:43.665Z,0
2017-01-25T07:10:42.837Z,0
2017-01-25T07:11:42.831Z,0
2017-01-25T07:12:43.238Z,0
2017-01-25T07:13:43.232Z,0
2017-01-25T07:14:43.234Z,0
2017-01-25T07:15:43.217Z,0
2017-01-25T07:16:43.621Z,0
2017-01-25T07:17:43.205Z,0
2017-01-25T07:18:43.209Z,0
2017-01-25T07:19:43.613Z,5
2017-01-25T07:20:42.782Z,5
2017-01-25T07:21:43.185Z,5
2017-01-25T07:22:42.773Z,5
2017-01-25T07:23:43.173Z,5
2017-01-25T07:24:43.178Z,5
2017-01-25T07:25:42.766Z,5
2017-01-25T07:26:42.757Z,5
2017-01-25T07:27:43.198Z,5
2017-01-25T07:28:43.153Z,5
2017-01-25T07:29:42.777Z,5
2017-01-25T07:30:42.729Z,5
2017-01-25T07:31:42.729Z,5
2017-01-25T07:32:42.725Z,5
2017-01-25T07:33:43.546Z,5
2017-01-25T07:34:43.537Z,5
2017-01-25T07:35:43.123Z,5
2017-01-25T07:36:42.706Z,10
2017-01-25T07:37:43.121Z,10
2017-01-25T07:38:43.106Z,10
2017-01-25T07:39:42.691Z,10
2017-01-25T07:40:43.100Z,10
2017-01-25T07:41:43.095Z,10
2017-01-25T07:42:42.668Z,10
2017-01-25T07:43:43.074Z,10
2017-01-25T07:44:43.078Z,10
2017-01-25T07:45:43.493Z,10
2017-01-25T07:46:43.083Z,10
2017-01-25T07:47:42.663Z,10
2017-01-25T07:48:42.655Z,10
2017-01-25T07:49:43.466Z,10
2017-01-25T07:50:43.059Z,10
2017-01-25T07:51:42.631Z,15
2017-01-25T07:52:43.051Z,15
2017-01-25T07:53:42.642Z,15
2017-01-25T07:54:43.467Z,15
2017-01-25T07:55:43.027Z,15
2017-01-25T07:56:43.035Z,15
2017-01-25T07:57:43.018Z,15
2017-01-25T07:58:42.599Z,15
2017-01-25T07:59:43.015Z,15
2017-01-25T08:00:43.000Z,15
2017-01-25T08:01:43.398Z,15
2017-01-25T08:02:42.592Z,15
2017-01-25T08:03:42.979Z,15
2017-01-25T08:04:42.975Z,20
2017-01-25T08:05:42.603Z,20
2017-01-25T08:06:42.148Z,20
2017-01-25T08:07:42.967Z,20
2017-01-25T08:08:43.368Z,20
2017-01-25T08:09:43.375Z,20
2017-01-25T08:10:42.955Z,20
2017-01-25T08:11:43.356Z,20
2017-01-25T08:12:42.937Z,20
2017-01-25T08:13:42.527Z,20
2017-01-25T08:14:42.536Z,20
2017-01-25T08:15:42.523Z,20
2017-01-25T08:16:42.932Z,20
2017-01-25T08:17:42.096Z,20
2017-01-25T08:18:42.912Z,25
2017-01-25T08:19:42.091Z,25
2017-01-25T08:20:42.912Z,25
2017-01-25T08:21:43.312Z,25
2017-01-25T08:22:42.484Z,25
2017-01-25T08:23:42.484Z,25
2017-01-25T08:24:42.480Z,25
2017-01-25T08:25:42.468Z,25
2017-01-25T08:26:42.883Z,25
2017-01-25T08:27:42.456Z,25
2017-01-25T08:28:42.863Z,30
2017-01-25T08:29:42.455Z,30
2017-01-25T08:30:43.286Z,30
2017-01-25T08:31:43.268Z,30
2017-01-25T08:32:43.267Z,30
2017-01-25T08:33:42.431Z,30
2017-01-25T08:34:42.839Z,30
2017-01-25T08:35:42.843Z,30
2017-01-25T08:36:42.828Z,30
2017-01-25T08:37:43.239Z,30
2017-01-25T08:38:42.819Z,30
2017-01-25T08:39:42.807Z,35
2017-01-25T08:40:42.396Z,35
2017-01-25T08:41:43.207Z,35
2017-01-25T08:42:43.215Z,35
2017-01-25T08:43:43.219Z,35
2017-01-25T08:44:42.783Z,35
2017-01-25T08:45:43.204Z,35
2017-01-25T08:46:42.379Z,35
2017-01-25T08:47:42.780Z,35
2017-01-25T08:48:42.771Z,35
2017-01-25T08:49:43.187Z,40
2017-01-25T08:50:42.359Z,40
2017-01-25T08:51:42.344Z,40
2017-01-25T08:52:43.159Z,40
2017-01-25T08:53:43.164Z,40
2017-01-25T08:54:42.336Z,40
2017-01-25T08:55:42.340Z,40
2017-01-25T08:56:42.736Z,40
2017-01-25T08:57:43.144Z,40
2017-01-25T08:58:42.312Z,40
2017-01-25T08:59:43.151Z,45
2017-01-25T09:00:42.720Z,45
2017-01-25T09:01:42.308Z,45
2017-01-25T09:02:43.155Z,45
2017-01-25T09:03:43.107Z,45
2017-01-25T09:04:42.700Z,45
2017-01-25T09:05:42.292Z,45
2017-01-25T09:06:42.685Z,45
2017-01-25T09:07:42.692Z,45
2017-01-25T09:08:42.728Z,45
2017-01-25T09:09:42.684Z,45
2017-01-25T09:10:43.084Z,45
2017-01-25T09:11:42.256Z,45
2017-01-25T09:12:42.665Z,50
2017-01-25T09:13:42.675Z,50
2017-01-25T09:14:42.244Z,50
2017-01-25T09:15:42.649Z,45
2017-01-25T09:16:42.649Z,50
2017-01-25T09:17:42.244Z,50
2017-01-25T09:18:43.049Z,50
2017-01-25T09:19:42.641Z,50
2017-01-25T09:20:42.629Z,50
2017-01-25T09:21:43.033Z,50
2017-01-25T09:22:41.789Z,50
2017-01-25T09:23:43.024Z,50
2017-01-25T09:24:42.613Z,50
2017-01-25T09:25:43.013Z,50
2017-01-25T09:26:42.201Z,50
2017-01-25T09:27:42.585Z,50
2017-01-25T09:28:42.596Z,50
2017-01-25T09:29:42.585Z,50
2017-01-25T09:30:42.589Z,50
2017-01-25T09:31:42.166Z,50
2017-01-25T09:32:42.161Z,50
2017-01-25T09:33:42.985Z,50
2017-01-25T09:34:42.565Z,50
2017-01-25T09:35:42.557Z,50
2017-01-25T09:36:42.564Z,50
2017-01-25T09:37:42.553Z,50
2017-01-25T09:38:42.141Z,55
2017-01-25T09:39:42.134Z,55
2017-01-25T09:40:42.116Z,55
2017-01-25T09:41:42.537Z,55
2017-01-25T09:42:42.534Z,55
2017-01-25T09:43:42.117Z,55
2017-01-25T09:44:42.530Z,55
2017-01-25T09:45:42.933Z,55
2017-01-25T09:46:42.105Z,60
2017-01-25T09:47:42.918Z,60
2017-01-25T09:48:42.538Z,60
2017-01-25T09:49:42.498Z,60
2017-01-25T09:50:42.090Z,60
2017-01-25T09:51:42.082Z,60
2017-01-25T09:52:42.087Z,60
2017-01-25T09:53:42.902Z,65
2017-01-25T09:54:42.082Z,65
2017-01-25T09:55:42.471Z,65
2017-01-25T09:56:42.091Z,65
2017-01-25T09:57:41.651Z,65
2017-01-25T09:58:42.455Z,65
2017-01-25T09:59:41.642Z,60
2017-01-25T10:00:42.451Z,60
2017-01-25T10:01:41.631Z,60
2017-01-25T10:02:42.856Z,60
2017-01-25T10:03:42.439Z,60
2017-01-25T10:04:42.023Z,60
2017-01-25T10:05:42.438Z,65
2017-01-25T10:06:42.027Z,65
2017-01-25T10:07:42.016Z,65
2017-01-25T10:08:41.599Z,65
2017-01-25T10:09:42.827Z,65
2017-01-25T10:10:42.440Z,65
2017-01-25T10:11:42.827Z,65
2017-01-25T10:12:42.395Z,65
2017-01-25T10:13:42.399Z,65
2017-01-25T10:14:41.576Z,65
2017-01-25T10:15:41.163Z,65
2017-01-25T10:16:42.799Z,65
2017-01-25T10:17:41.971Z,65
2017-01-25T10:18:42.375Z,65
2017-01-25T10:19:42.380Z,65
2017-01-25T10:20:42.376Z,65
2017-01-25T10:21:41.955Z,70
2017-01-25T10:22:41.948Z,70
2017-01-25T10:23:41.943Z,70
2017-01-25T10:24:41.943Z,70
2017-01-25T10:25:42.352Z,70
2017-01-25T10:26:41.939Z,70
2017-01-25T10:27:41.935Z,70
2017-01-25T10:28:41.916Z,70
2017-01-25T10:29:42.349Z,70
2017-01-25T10:30:42.331Z,70
2017-01-25T10:31:42.336Z,70
2017-01-25T10:32:42.339Z,70
2017-01-25T10:33:42.332Z,70
2017-01-25T10:34:41.903Z,75
2017-01-25T10:35:42.315Z,75
2017-01-25T10:36:42.308Z,75
2017-01-25T10:37:42.304Z,75
2017-01-25T10:38:42.295Z,75
2017-01-25T10:39:41.884Z,75
2017-01-25T10:40:42.320Z,75
2017-01-25T10:41:42.700Z,80
2017-01-25T10:42:41.456Z,80
2017-01-25T10:43:41.483Z,80
2017-01-25T10:44:42.283Z,80
2017-01-25T10:45:42.280Z,80
2017-01-25T10:46:42.273Z,80
2017-01-25T10:47:42.689Z,80
2017-01-25T10:48:42.264Z,80
2017-01-25T10:49:41.839Z,80
2017-01-25T10:50:41.835Z,80
2017-01-25T10:51:42.256Z,80
2017-01-25T10:52:42.656Z,80
2017-01-25T10:53:41.832Z,80
2017-01-25T10:54:41.008Z,80
2017-01-25T10:55:42.643Z,85
2017-01-25T10:56:42.236Z,85
2017-01-25T10:57:42.628Z,85
2017-01-25T10:58:41.812Z,85
2017-01-25T10:59:42.668Z,85
2017-01-25T11:00:42.631Z,85
2017-01-25T11:01:42.220Z,85
2017-01-25T11:02:41.797Z,85
2017-01-25T11:03:41.808Z,85
2017-01-25T11:04:42.604Z,85
2017-01-25T11:05:42.191Z,85
2017-01-25T11:06:42.184Z,85
2017-01-25T11:07:42.604Z,85
2017-01-25T11:08:41.768Z,85
2017-01-25T11:09:41.799Z,85
2017-01-25T11:10:42.589Z,85
2017-01-25T11:11:41.756Z,85
2017-01-25T11:12:42.171Z,85
2017-01-25T11:13:42.164Z,85
2017-01-25T11:14:42.156Z,85
2017-01-25T11:15:42.153Z,90
2017-01-25T11:16:41.748Z,90
2017-01-25T11:17:41.740Z,90
2017-01-25T11:18:41.740Z,90
2017-01-25T11:19:41.736Z,85
2017-01-25T11:20:42.128Z,85
2017-01-25T11:21:42.128Z,85
2017-01-25T11:22:42.540Z,85
2017-01-25T11:23:41.712Z,85
2017-01-25T11:24:42.129Z,85
2017-01-25T11:25:42.536Z,85
2017-01-25T11:26:42.529Z,85
2017-01-25T11:27:42.108Z,85
2017-01-25T11:28:42.517Z,85
2017-01-25T11:29:41.272Z,85
2017-01-25T11:30:42.508Z,85
2017-01-25T11:31:41.681Z,85
2017-01-25T11:32:42.096Z,85
2017-01-25T11:33:42.088Z,85
2017-01-25T11:34:41.681Z,85
2017-01-25T11:35:42.488Z,85
2017-01-25T11:36:42.076Z,85
2017-01-25T11:37:41.657Z,85
2017-01-25T11:38:41.667Z,85
2017-01-25T11:39:42.488Z,85
2017-01-25T11:40:41.649Z,85
2017-01-25T11:41:42.077Z,85
2017-01-25T11:42:42.478Z,85
2017-01-25T11:43:42.045Z,85
2017-01-25T11:44:41.626Z,85
2017-01-25T11:45:42.045Z,85
2017-01-25T11:46:42.457Z,85
2017-01-25T11:47:41.233Z,85
2017-01-25T11:48:42.029Z,85
2017-01-25T11:49:42.432Z,85
2017-01-25T11:50:42.017Z,85
2017-01-25T11:51:41.605Z,85
2017-01-25T11:52:42.021Z,80
2017-01-25T11:53:42.021Z,80
2017-01-25T11:54:41.593Z,80
2017-01-25T11:55:42.409Z,80
2017-01-25T11:56:42.414Z,80
2017-01-25T11:57:42.021Z,85
2017-01-25T11:58:42.393Z,80
2017-01-25T11:59:41.581Z,85
2017-01-25T12:00:41.993Z,85
2017-01-25T12:01:42.397Z,85
2017-01-25T12:02:41.981Z,85
2017-01-25T12:03:41.981Z,85
2017-01-25T12:04:41.581Z,80
2017-01-25T12:05:41.157Z,80
2017-01-25T12:06:41.953Z,80
2017-01-25T12:07:41.551Z,80
2017-01-25T12:08:41.974Z,80
2017-01-25T12:09:42.430Z,80
2017-01-25T12:10:42.366Z,80
2017-01-25T12:11:41.126Z,80
2017-01-25T12:12:41.942Z,85
2017-01-25T12:13:41.533Z,85
2017-01-25T12:14:41.946Z,85
2017-01-25T12:15:42.346Z,85
2017-01-25T12:16:41.958Z,85
2017-01-25T12:17:41.926Z,85
2017-01-25T12:18:41.926Z,85
2017-01-25T12:19:41.917Z,85
2017-01-25T12:20:41.914Z,85
2017-01-25T12:21:41.938Z,85
2017-01-25T12:22:41.498Z,85
2017-01-25T12:23:41.906Z,85
2017-01-25T12:24:42.337Z,85
2017-01-25T12:25:41.894Z,85
2017-01-25T12:26:41.894Z,85
2017-01-25T12:27:42.301Z,85
2017-01-25T12:28:41.469Z,85
2017-01-25T12:29:41.885Z,85
2017-01-25T12:30:42.298Z,85
2017-01-25T12:31:41.881Z,85
2017-01-25T12:32:41.477Z,85
2017-01-25T12:33:41.061Z,80
2017-01-25T12:34:41.864Z,80
2017-01-25T12:35:41.454Z,80
2017-01-25T12:36:42.277Z,80
2017-01-25T12:37:42.261Z,80
2017-01-25T12:38:41.434Z,80
2017-01-25T12:39:41.841Z,80
2017-01-25T12:40:41.846Z,80
2017-01-25T12:41:41.833Z,80
2017-01-25T12:42:41.013Z,80
2017-01-25T12:43:41.841Z,80
2017-01-25T12:44:42.245Z,80
2017-01-25T12:45:41.413Z,80
2017-01-25T12:46:40.993Z,80
2017-01-25T12:47:41.823Z,80
2017-01-25T12:48:41.808Z,75
2017-01-25T12:49:42.225Z,75
2017-01-25T12:50:42.213Z,75
2017-01-25T12:51:40.991Z,80
2017-01-25T12:52:42.201Z,80
2017-01-25T12:53:41.389Z,80
2017-01-25T12:54:41.793Z,80
2017-01-25T12:55:42.210Z,80
2017-01-25T12:56:41.777Z,80
2017-01-25T12:57:42.189Z,80
2017-01-25T12:58:42.193Z,80
2017-01-25T12:59:42.185Z,75
2017-01-25T13:00:41.797Z,75
2017-01-25T13:01:42.174Z,75
2017-01-25T13:02:40.953Z,70
2017-01-25T13:03:41.762Z,70
2017-01-25T13:04:41.758Z,70
2017-01-25T13:05:41.341Z,70
2017-01-25T13:06:41.766Z,70
2017-01-25T13:07:41.338Z,70
2017-01-25T13:08:42.158Z,70
2017-01-25T13:09:41.326Z,70
2017-01-25T13:10:41.726Z,70
2017-01-25T13:11:41.730Z,70
2017-01-25T13:12:41.741Z,65
2017-01-25T13:13:41.321Z,65
2017-01-25T13:14:41.315Z,65
2017-01-25T13:15:42.142Z,65
2017-01-25T13:16:42.154Z,65
2017-01-25T13:17:41.722Z,65
2017-01-25T13:18:41.711Z,65
2017-01-25T13:19:42.122Z,65
2017-01-25T13:20:41.710Z,65
2017-01-25T13:21:41.702Z,65
2017-01-25T13:22:41.707Z,65
2017-01-25T13:23:41.706Z,65
2017-01-25T13:24:41.694Z,65
2017-01-25T13:25:41.695Z,65
2017-01-25T13:26:42.095Z,65
2017-01-25T13:27:42.091Z,65
2017-01-25T13:28:41.668Z,65
2017-01-25T13:29:41.678Z,65
2017-01-25T13:30:42.087Z,65
2017-01-25T13:31:42.095Z,65
2017-01-25T13:32:41.267Z,65
2017-01-25T13:33:41.660Z,65
2017-01-25T13:34:41.232Z,65
2017-01-25T13:35:42.085Z,60
2017-01-25T13:36:41.648Z,60
2017-01-25T13:37:42.050Z,60
2017-01-25T13:38:41.644Z,55
2017-01-25T13:39:41.639Z,55
2017-01-25T13:40:41.636Z,60
2017-01-25T13:41:42.048Z,60
2017-01-25T13:42:42.060Z,55
2017-01-25T13:43:41.212Z,55
2017-01-25T13:44:41.617Z,55
2017-01-25T13:45:41.208Z,55
2017-01-25T13:46:42.022Z,50
2017-01-25T13:47:41.645Z,50
2017-01-25T13:48:42.013Z,50
2017-01-25T13:49:41.601Z,50
2017-01-25T13:50:41.609Z,50
2017-01-25T13:51:41.196Z,50
2017-01-25T13:52:41.597Z,50
2017-01-25T13:53:41.182Z,50
2017-01-25T13:54:41.169Z,50
2017-01-25T13:55:41.582Z,50
2017-01-25T13:56:41.990Z,50
2017-01-25T13:57:41.187Z,50
2017-01-25T13:58:41.994Z,45
2017-01-25T13:59:41.567Z,45
2017-01-25T14:00:41.982Z,45
2017-01-25T14:01:40.743Z,45
2017-01-25T14:02:41.550Z,45
2017-01-25T14:03:41.146Z,40
2017-01-25T14:04:41.150Z,40
2017-01-25T14:05:41.131Z,40
2017-01-25T14:06:41.539Z,40
2017-01-25T14:07:41.136Z,40
2017-01-25T14:08:41.147Z,40
2017-01-25T14:09:41.542Z,40
2017-01-25T14:10:41.539Z,40
2017-01-25T14:11:41.947Z,40
2017-01-25T14:12:41.519Z,40
2017-01-25T14:13:41.523Z,35
2017-01-25T14:14:41.524Z,35
2017-01-25T14:15:41.508Z,35
2017-01-25T14:16:41.511Z,35
2017-01-25T14:17:41.920Z,35
2017-01-25T14:18:40.676Z,35
2017-01-25T14:19:41.515Z,35
2017-01-25T14:20:41.084Z,35
2017-01-25T14:21:41.908Z,35
2017-01-25T14:22:41.492Z,35
2017-01-25T14:23:41.477Z,35
2017-01-25T14:24:41.477Z,30
2017-01-25T14:25:41.492Z,30
2017-01-25T14:26:41.472Z,30
2017-01-25T14:27:41.062Z,30
2017-01-25T14:28:41.082Z,30
2017-01-25T14:29:41.873Z,30
2017-01-25T14:30:41.071Z,30
2017-01-25T14:31:41.461Z,30